createdAt,value
2022-08-21T00:00:28.134Z,2.63
2022-08-21T00:02:56.697Z,2.47
2022-08-21T00:05:24.225Z,2.70
2022-08-21T00:07:50.864Z,2.40
2022-08-21T00:10:17.903Z,2.73
2022-08-21T00:12:44.619Z,2.73
2022-08-21T00:15:13.975Z,2.40
2022-08-21T00:17:40.757Z,2.30
2022-08-21T00:20:09.716Z,2.90
2022-08-21T00:22:36.608Z,2.70
2022-08-21T00:25:04.387Z,2.57
2022-08-21T00:27:30.853Z,3.07
2022-08-21T00:29:57.355Z,2.50
2022-08-21T00:32:24.782Z,2.97
2022-08-21T00:34:51.687Z,2.77
2022-08-21T00:37:18.145Z,3.00
2022-08-21T00:39:44.784Z,3.83
2022-08-21T00:42:15.729Z,3.23
2022-08-21T00:44:46.327Z,3.23
2022-08-21T00:47:12.847Z,3.27
2022-08-21T00:49:40.324Z,3.30
2022-08-21T00:52:08.260Z,3.80
2022-08-21T00:54:34.839Z,4.30
2022-08-21T00:57:08.342Z,3.89
2022-08-21T00:59:38.275Z,3.43
2022-08-21T01:02:05.916Z,4.57
2022-08-21T01:04:32.378Z,3.50
2022-08-21T01:06:58.872Z,4.33
2022-08-21T01:09:25.548Z,3.77
2022-08-21T01:11:52.129Z,4.33
2022-08-21T01:14:20.644Z,4.33
2022-08-21T01:16:49.577Z,3.73
2022-08-21T01:19:17.968Z,4.20
2022-08-21T01:21:44.917Z,4.00
2022-08-21T01:24:11.814Z,4.37
2022-08-21T01:26:38.361Z,4.53
2022-08-21T01:29:07.825Z,4.20
2022-08-21T01:31:34.717Z,4.27
2022-08-21T01:34:02.094Z,3.67
2022-08-21T01:36:28.704Z,3.63
2022-08-21T01:38:55.283Z,4.67
2022-08-21T01:41:21.827Z,3.90
2022-08-21T01:43:48.383Z,4.07
2022-08-21T01:46:15.284Z,3.80
2022-08-21T01:48:41.835Z,4.00
2022-08-21T01:51:08.820Z,3.67
2022-08-21T01:53:37.608Z,3.67
2022-08-21T01:56:05.222Z,3.03
2022-08-21T01:58:39.841Z,3.40
2022-08-21T02:01:06.488Z,3.97
2022-08-21T02:03:36.054Z,4.00
2022-08-21T02:06:04.096Z,3.43
2022-08-21T02:08:30.648Z,3.60
2022-08-21T02:10:57.132Z,3.43
2022-08-21T02:13:23.638Z,3.60
2022-08-21T02:15:50.140Z,2.77
2022-08-21T02:18:16.748Z,3.10
2022-08-21T02:20:45.523Z,3.80
2022-08-21T02:23:12.547Z,4.07
2022-08-21T02:25:39.152Z,3.90
2022-08-21T02:28:07.196Z,3.27
2022-08-21T02:30:35.852Z,3.83
2022-08-21T02:33:02.351Z,3.63
2022-08-21T02:35:29.136Z,3.83
2022-08-21T02:38:00.286Z,3.80
2022-08-21T02:40:28.064Z,3.63
2022-08-21T02:42:55.004Z,3.63
2022-08-21T02:45:21.618Z,3.27
2022-08-21T02:47:55.650Z,3.87
2022-08-21T02:50:23.704Z,3.00
2022-08-21T02:52:55.888Z,3.37
2022-08-21T02:55:23.795Z,3.03
2022-08-21T02:57:50.357Z,3.53
2022-08-21T03:00:17.544Z,4.17
2022-08-21T03:02:44.081Z,3.73
2022-08-21T03:05:11.035Z,3.30
2022-08-21T03:07:38.207Z,3.40
2022-08-21T03:10:05.761Z,3.67
2022-08-21T03:12:32.293Z,4.43
2022-08-21T03:14:59.191Z,3.40
2022-08-21T03:17:29.602Z,4.03
2022-08-21T03:19:57.559Z,3.90
2022-08-21T03:22:24.058Z,3.50
2022-08-21T03:24:50.918Z,3.43
2022-08-21T03:27:18.369Z,4.03
2022-08-21T03:29:46.815Z,4.27
2022-08-21T03:32:13.359Z,4.07
2022-08-21T03:34:40.181Z,3.70
2022-08-21T03:37:08.113Z,4.07
2022-08-21T03:39:35.344Z,3.37
2022-08-21T03:42:02.125Z,3.97
2022-08-21T03:44:30.080Z,3.63
2022-08-21T03:46:57.168Z,3.50
2022-08-21T03:49:24.779Z,3.57
2022-08-21T03:51:59.134Z,3.93
2022-08-21T03:54:26.416Z,3.80
2022-08-21T03:56:55.526Z,3.97
2022-08-21T03:59:22.043Z,3.87
2022-08-21T04:01:55.129Z,4.30
2022-08-21T04:04:21.669Z,4.33
2022-08-21T04:06:48.430Z,3.60
2022-08-21T04:09:14.914Z,3.87
2022-08-21T04:11:41.394Z,3.70
2022-08-21T04:14:07.887Z,4.53
2022-08-21T04:16:34.367Z,3.77
2022-08-21T04:19:00.856Z,3.20
2022-08-21T04:21:27.327Z,3.53
2022-08-21T04:23:57.996Z,3.13
2022-08-21T04:26:24.481Z,3.67
2022-08-21T04:28:50.952Z,3.50
2022-08-21T04:31:17.555Z,4.27
2022-08-21T04:33:44.022Z,3.30
2022-08-21T04:36:10.555Z,3.80
2022-08-21T04:38:37.685Z,3.43
2022-08-21T04:41:06.380Z,3.60
2022-08-21T04:43:33.336Z,3.67
2022-08-21T04:46:00.964Z,3.70
2022-08-21T04:48:27.471Z,3.23
2022-08-21T04:50:59.912Z,3.17
2022-08-21T04:53:40.894Z,3.70
2022-08-21T04:56:19.859Z,3.03
2022-08-21T04:58:46.528Z,3.50
2022-08-21T05:01:15.667Z,3.83
2022-08-21T05:03:43.022Z,3.70
2022-08-21T05:06:12.388Z,3.77
2022-08-21T05:08:39.383Z,3.37
2022-08-21T05:11:05.964Z,3.53
2022-08-21T05:13:32.867Z,3.67
2022-08-21T05:15:59.910Z,3.67
2022-08-21T05:18:26.448Z,3.07
2022-08-21T05:20:52.947Z,3.77
2022-08-21T05:23:19.400Z,3.57
2022-08-21T05:25:46.050Z,3.70
2022-08-21T05:28:13.683Z,3.47
2022-08-21T05:30:40.268Z,4.17
2022-08-21T05:33:06.930Z,4.57
2022-08-21T05:35:33.468Z,4.10
2022-08-21T05:38:00.921Z,4.13
2022-08-21T05:40:27.777Z,4.27
2022-08-21T05:42:55.645Z,4.03
2022-08-21T05:45:41.653Z,5.23
2022-08-21T05:48:11.836Z,4.50
2022-08-21T05:50:39.152Z,5.67
2022-08-21T05:53:07.466Z,5.20
2022-08-21T05:55:34.544Z,5.17
2022-08-21T05:58:01.073Z,5.33
2022-08-21T06:00:27.620Z,4.90
2022-08-21T06:02:54.197Z,4.73
2022-08-21T06:05:35.877Z,5.40
2022-08-21T06:08:04.228Z,6.03
2022-08-21T06:10:30.803Z,5.50
2022-08-21T06:12:57.457Z,5.60
2022-08-21T06:15:24.106Z,4.80
2022-08-21T06:17:50.587Z,5.40
2022-08-21T06:20:17.071Z,6.13
2022-08-21T06:22:43.554Z,5.10
2022-08-21T06:25:10.425Z,4.13
2022-08-21T06:27:36.968Z,5.00
2022-08-21T06:30:04.441Z,4.60
2022-08-21T06:32:30.909Z,4.87
2022-08-21T06:34:57.432Z,5.00
2022-08-21T06:37:24.026Z,4.20
2022-08-21T06:39:50.575Z,3.83
2022-08-21T06:42:17.648Z,4.10
2022-08-21T06:44:44.763Z,4.23
2022-08-21T06:47:11.636Z,3.87
2022-08-21T06:49:38.209Z,3.87
2022-08-21T06:52:04.728Z,3.73
2022-08-21T06:54:31.697Z,3.60
2022-08-21T06:56:58.164Z,4.63
2022-08-21T06:59:24.705Z,3.77
2022-08-21T07:01:51.186Z,3.70
2022-08-21T07:04:17.712Z,3.60
2022-08-21T07:06:44.215Z,3.93
2022-08-21T07:09:11.629Z,4.53
2022-08-21T07:11:47.283Z,3.50
2022-08-21T07:14:20.219Z,3.47
2022-08-21T07:16:47.393Z,3.30
2022-08-21T07:19:13.875Z,3.57
2022-08-21T07:21:40.420Z,3.40
2022-08-21T07:24:06.912Z,3.57
2022-08-21T07:26:33.449Z,3.47
2022-08-21T07:28:59.923Z,3.35
2022-08-21T07:31:27.110Z,3.45
2022-08-21T07:33:53.747Z,3.85
2022-08-21T07:36:20.279Z,3.70
2022-08-21T07:38:46.890Z,3.65
2022-08-21T07:41:23.810Z,3.38
2022-08-21T07:43:52.830Z,3.92
2022-08-21T07:46:19.817Z,3.40
2022-08-21T07:48:46.310Z,3.58
2022-08-21T07:51:15.272Z,3.75
2022-08-21T07:53:42.118Z,4.25
2022-08-21T07:56:09.429Z,3.28
2022-08-21T07:58:36.033Z,3.80
2022-08-21T08:01:02.598Z,4.07
2022-08-21T08:03:29.442Z,3.90
2022-08-21T08:05:56.642Z,3.80
2022-08-21T08:08:23.121Z,3.75
2022-08-21T08:10:50.552Z,4.15
2022-08-21T08:13:17.642Z,3.88
2022-08-21T08:15:44.176Z,3.80
2022-08-21T08:18:10.765Z,3.58
2022-08-21T08:20:37.226Z,3.70
2022-08-21T08:23:03.839Z,4.03
2022-08-21T08:25:32.749Z,3.63
2022-08-21T08:28:03.554Z,3.50
2022-08-21T08:30:43.549Z,3.50
2022-08-21T08:33:10.602Z,3.80
2022-08-21T08:35:38.943Z,3.05
2022-08-21T08:38:12.119Z,3.77
2022-08-21T08:40:47.298Z,3.65
2022-08-21T08:43:14.921Z,4.35
2022-08-21T08:45:43.466Z,3.80
2022-08-21T08:48:14.126Z,4.00
2022-08-21T08:50:53.493Z,4.57
2022-08-21T08:53:24.895Z,3.97
2022-08-21T08:55:52.866Z,5.00
2022-08-21T08:58:39.596Z,4.30
2022-08-21T09:01:10.235Z,4.32
2022-08-21T09:03:37.930Z,4.90
2022-08-21T09:06:11.578Z,4.60
2022-08-21T09:08:55.460Z,4.22
2022-08-21T09:11:21.947Z,4.00
2022-08-21T09:14:02.323Z,3.28
2022-08-21T09:16:35.011Z,3.97
2022-08-21T09:19:04.895Z,3.60
2022-08-21T09:21:42.457Z,3.38
2022-08-21T09:24:11.810Z,3.90
2022-08-21T09:26:47.241Z,3.70
2022-08-21T09:29:13.775Z,3.67
2022-08-21T09:31:40.310Z,3.75
2022-08-21T09:34:09.063Z,2.90
2022-08-21T09:36:43.180Z,3.22
2022-08-21T09:39:11.125Z,3.65
2022-08-21T09:41:38.239Z,3.47
2022-08-21T09:44:05.735Z,3.58
2022-08-21T09:46:32.528Z,3.30
2022-08-21T09:49:02.008Z,3.80
2022-08-21T09:51:33.605Z,3.70
2022-08-21T09:54:06.148Z,3.35
2022-08-21T09:56:53.084Z,3.40
2022-08-21T09:59:25.540Z,3.50
2022-08-21T10:01:53.941Z,3.13
2022-08-21T10:04:22.507Z,3.50
2022-08-21T10:06:49.035Z,3.42
2022-08-21T10:09:21.019Z,3.80
2022-08-21T10:12:11.358Z,2.85
2022-08-21T10:14:45.109Z,3.20
2022-08-21T10:17:30.750Z,3.08
2022-08-21T10:20:02.351Z,2.58
2022-08-21T10:22:37.932Z,3.50
2022-08-21T10:25:06.554Z,3.22
2022-08-21T10:27:44.516Z,3.15
2022-08-21T10:30:13.568Z,3.35
2022-08-21T10:33:00.397Z,2.72
2022-08-21T10:35:31.751Z,2.90
2022-08-21T10:37:58.216Z,3.30
2022-08-21T10:40:43.596Z,3.00
2022-08-21T10:43:28.389Z,3.17
2022-08-21T10:45:54.888Z,3.03
2022-08-21T10:48:25.818Z,2.80
2022-08-21T10:50:55.422Z,2.92
2022-08-21T10:53:37.148Z,3.08
2022-08-21T10:56:09.976Z,2.67
2022-08-21T10:58:47.412Z,2.22
2022-08-21T11:01:19.645Z,2.45
2022-08-21T11:03:47.708Z,2.40
2022-08-21T11:06:16.684Z,2.67
2022-08-21T11:08:47.782Z,3.10
2022-08-21T11:11:14.383Z,2.70
2022-08-21T11:13:57.181Z,2.72
2022-08-21T11:16:53.567Z,2.40
2022-08-21T11:19:31.215Z,3.33
2022-08-21T11:22:02.296Z,2.33
2022-08-21T11:24:28.785Z,3.03
2022-08-21T11:26:58.121Z,3.03
2022-08-21T11:29:30.632Z,2.72
2022-08-21T11:32:00.224Z,2.55
2022-08-21T11:34:37.612Z,3.42
2022-08-21T11:37:09.505Z,2.63
2022-08-21T11:40:02.418Z,2.60
2022-08-21T11:42:41.646Z,2.65
2022-08-21T11:45:10.856Z,2.83
2022-08-21T11:47:56.748Z,2.20
2022-08-21T11:50:35.892Z,2.65
2022-08-21T11:53:05.890Z,3.08
2022-08-21T11:55:38.237Z,2.75
2022-08-21T11:58:23.356Z,2.67
2022-08-21T12:00:58.627Z,2.58
2022-08-21T12:03:35.799Z,2.83
2022-08-21T12:06:05.267Z,2.60
2022-08-21T12:08:36.095Z,2.50
2022-08-21T12:11:30.652Z,2.80
2022-08-21T12:14:03.792Z,2.42
2022-08-21T12:16:30.231Z,2.40
2022-08-21T12:19:16.963Z,2.53
2022-08-21T12:21:51.420Z,2.50
2022-08-21T12:24:19.895Z,3.00
2022-08-21T12:26:49.111Z,2.58
2022-08-21T12:29:35.807Z,2.67
2022-08-21T12:32:06.629Z,3.15
2022-08-21T12:34:51.559Z,2.83
2022-08-21T12:37:24.296Z,2.83
2022-08-21T12:39:53.420Z,3.30
2022-08-21T12:42:22.078Z,2.65
2022-08-21T12:44:56.707Z,3.03
2022-08-21T12:47:34.599Z,3.17
2022-08-21T12:50:13.760Z,2.95
2022-08-21T12:52:46.884Z,2.85
2022-08-21T12:55:14.354Z,3.10
2022-08-21T12:57:41.602Z,2.83
2022-08-21T13:00:13.898Z,3.63
2022-08-21T13:02:44.815Z,2.95
2022-08-21T13:05:13.951Z,3.30
2022-08-21T13:07:44.921Z,3.45
2022-08-21T13:10:20.599Z,3.08
2022-08-21T13:12:47.479Z,3.17
2022-08-21T13:15:14.864Z,2.45
2022-08-21T13:17:44.130Z,2.42
2022-08-21T13:20:23.151Z,1.73
2022-08-21T13:22:49.745Z,2.35
2022-08-21T13:25:17.616Z,2.40
2022-08-21T13:27:45.216Z,3.05
2022-08-21T13:30:19.008Z,3.35
2022-08-21T13:32:47.198Z,2.40
2022-08-21T13:35:16.220Z,2.70
2022-08-21T13:37:43.195Z,3.03
2022-08-21T13:40:17.723Z,2.85
2022-08-21T13:42:45.815Z,2.78
2022-08-21T13:45:13.926Z,2.45
2022-08-21T13:47:40.442Z,2.35
2022-08-21T13:50:08.694Z,2.40
2022-08-21T13:52:46.063Z,2.88
2022-08-21T13:55:14.337Z,2.80
2022-08-21T13:57:40.801Z,2.88
2022-08-21T14:00:10.988Z,2.80
2022-08-21T14:02:40.653Z,2.17
2022-08-21T14:05:07.615Z,2.40
2022-08-21T14:07:40.179Z,2.40
2022-08-21T14:10:08.526Z,2.45
2022-08-21T14:12:55.569Z,2.28
2022-08-21T14:15:26.781Z,2.20
2022-08-21T14:17:53.443Z,2.50
2022-08-21T14:20:28.087Z,2.20
2022-08-21T14:22:54.645Z,2.65
2022-08-21T14:25:21.221Z,2.70
2022-08-21T14:27:50.751Z,2.83
2022-08-21T14:30:22.076Z,2.50
2022-08-21T14:32:48.900Z,2.93
2022-08-21T14:35:18.439Z,2.75
2022-08-21T14:37:53.532Z,2.33
2022-08-21T14:40:21.103Z,2.63
2022-08-21T14:42:47.914Z,3.13
2022-08-21T14:45:16.421Z,2.77
2022-08-21T14:47:44.770Z,2.93
2022-08-21T14:50:11.887Z,3.70
2022-08-21T14:52:38.376Z,3.30
2022-08-21T14:55:05.603Z,3.30
2022-08-21T14:57:32.421Z,2.90
2022-08-21T15:00:01.895Z,3.23
2022-08-21T15:02:28.812Z,2.67
2022-08-21T15:04:55.259Z,2.50
2022-08-21T15:07:21.735Z,2.67
2022-08-21T15:09:48.256Z,2.83
2022-08-21T15:12:15.535Z,3.20
2022-08-21T15:14:42.425Z,3.00
2022-08-21T15:17:10.520Z,2.90
2022-08-21T15:19:37.508Z,2.27
2022-08-21T15:22:04.117Z,3.60
2022-08-21T15:24:31.119Z,2.08
2022-08-21T15:26:59.922Z,3.30
2022-08-21T15:29:28.972Z,3.20
2022-08-21T15:32:01.790Z,2.90
2022-08-21T15:34:29.769Z,2.80
2022-08-21T15:36:57.067Z,2.50
2022-08-21T15:39:24.784Z,3.37
2022-08-21T15:41:51.524Z,2.63
2022-08-21T15:44:18.021Z,3.37
2022-08-21T15:46:45.888Z,3.67
2022-08-21T15:49:12.444Z,3.50
2022-08-21T15:51:43.622Z,4.23
2022-08-21T15:54:11.137Z,4.22
2022-08-21T15:56:38.668Z,3.70
2022-08-21T15:59:09.976Z,4.30
2022-08-21T16:01:44.903Z,3.70
2022-08-21T16:04:13.537Z,3.70
2022-08-21T16:06:55.398Z,3.50
2022-08-21T16:09:22.469Z,3.37
2022-08-21T16:11:48.965Z,2.53
2022-08-21T16:14:16.014Z,2.73
2022-08-21T16:16:42.739Z,3.30
2022-08-21T16:19:10.348Z,2.43
2022-08-21T16:21:37.611Z,2.30
2022-08-21T16:24:04.269Z,2.40
2022-08-21T16:26:31.035Z,3.00
2022-08-21T16:28:59.711Z,3.42
2022-08-21T16:31:27.467Z,3.05
2022-08-21T16:33:57.243Z,3.30
2022-08-21T16:36:26.590Z,2.87
2022-08-21T16:38:56.604Z,3.73
2022-08-21T16:41:24.298Z,3.80
2022-08-21T16:43:51.504Z,4.80
2022-08-21T16:46:18.604Z,4.40
2022-08-21T16:48:45.306Z,3.77
2022-08-21T16:51:12.588Z,3.70
2022-08-21T16:53:39.095Z,4.10
2022-08-21T16:56:05.794Z,3.83
2022-08-21T16:58:36.378Z,3.53
2022-08-21T17:01:08.051Z,3.50
2022-08-21T17:03:36.656Z,4.83
2022-08-21T17:06:03.321Z,4.70
2022-08-21T17:08:29.790Z,4.13
2022-08-21T17:10:56.307Z,4.13
2022-08-21T17:13:22.900Z,3.90
2022-08-21T17:15:49.454Z,3.63
2022-08-21T17:18:17.906Z,4.27
2022-08-21T17:20:44.533Z,3.90
2022-08-21T17:23:11.127Z,3.57
2022-08-21T17:25:39.848Z,3.40
2022-08-21T17:28:06.831Z,3.80
2022-08-21T17:30:34.228Z,3.50
2022-08-21T17:33:01.176Z,4.43
2022-08-21T17:35:27.728Z,3.57
2022-08-21T17:37:54.231Z,3.73
2022-08-21T17:40:21.428Z,3.73
2022-08-21T17:42:48.398Z,3.23
2022-08-21T17:45:16.242Z,3.50
2022-08-21T17:47:42.866Z,3.67
2022-08-21T17:50:10.398Z,3.77
2022-08-21T17:52:37.027Z,2.70
2022-08-21T17:55:04.161Z,3.33
2022-08-21T17:57:32.969Z,3.20
2022-08-21T17:59:59.436Z,3.60
2022-08-21T18:02:26.700Z,3.00
2022-08-21T18:04:55.395Z,2.30
2022-08-21T18:07:25.307Z,2.80
2022-08-21T18:10:00.194Z,2.87
2022-08-21T18:12:26.813Z,2.93
2022-08-21T18:14:53.323Z,3.23
2022-08-21T18:17:21.339Z,2.60
2022-08-21T18:19:49.204Z,3.03
2022-08-21T18:22:16.443Z,3.00
2022-08-21T18:24:43.829Z,3.40
2022-08-21T18:27:10.541Z,3.03
2022-08-21T18:29:47.377Z,3.37
2022-08-21T18:32:30.282Z,3.83
2022-08-21T18:34:59.330Z,3.47
2022-08-21T18:37:25.795Z,3.57
2022-08-21T18:39:52.359Z,3.17
2022-08-21T18:42:19.009Z,3.07
2022-08-21T18:44:49.624Z,5.10
2022-08-21T18:47:23.224Z,3.40
2022-08-21T18:49:49.928Z,3.30
2022-08-21T18:52:20.477Z,4.20
2022-08-21T18:57:34.626Z,3.40
2022-08-21T19:00:03.651Z,3.43
2022-08-21T19:02:30.843Z,3.70
2022-08-21T19:04:57.409Z,4.13
2022-08-21T19:07:24.952Z,4.10
2022-08-21T19:10:21.031Z,2.80
2022-08-21T19:12:39.798Z,3.10
2022-08-21T19:15:07.922Z,3.23
2022-08-21T19:17:34.569Z,3.20
2022-08-21T19:20:06.392Z,3.27
2022-08-21T19:22:32.957Z,3.43
2022-08-21T19:24:59.483Z,3.33
2022-08-21T19:27:26.360Z,3.27
2022-08-21T19:29:53.295Z,3.60
2022-08-21T19:32:19.798Z,3.13
2022-08-21T19:34:49.898Z,3.40
2022-08-21T19:37:18.264Z,3.73
2022-08-21T19:39:48.824Z,3.77
2022-08-21T19:42:17.607Z,3.37
2022-08-21T19:44:45.391Z,3.50
2022-08-21T19:47:19.160Z,3.73
2022-08-21T19:49:50.169Z,4.03
2022-08-21T19:52:16.988Z,3.83
2022-08-21T19:54:44.801Z,3.77
2022-08-21T19:57:12.156Z,3.87
2022-08-21T19:59:40.533Z,3.50
2022-08-21T20:02:07.763Z,3.90
2022-08-21T20:04:34.303Z,3.30
2022-08-21T20:07:01.143Z,3.53
2022-08-21T20:09:27.959Z,6.10
2022-08-21T20:11:56.344Z,3.07
2022-08-21T20:14:26.586Z,3.90
2022-08-21T20:17:00.557Z,4.60
2022-08-21T20:19:27.030Z,4.67
2022-08-21T20:21:58.449Z,3.73
2022-08-21T20:24:27.400Z,3.63
2022-08-21T20:26:54.378Z,4.20
2022-08-21T20:29:24.437Z,3.23
2022-08-21T20:31:56.031Z,3.20
2022-08-21T20:34:22.499Z,3.60
2022-08-21T20:36:53.330Z,3.47
2022-08-21T20:39:20.022Z,3.53
2022-08-21T20:41:51.081Z,3.37
2022-08-21T20:44:17.622Z,3.00
2022-08-21T20:46:44.577Z,3.97
2022-08-21T20:49:14.037Z,3.20
2022-08-21T20:51:44.770Z,3.47
2022-08-21T20:54:27.330Z,3.67
2022-08-21T20:56:54.165Z,3.77
2022-08-21T20:59:30.962Z,3.30
2022-08-21T21:01:59.920Z,3.73
2022-08-21T21:04:42.897Z,3.87
2022-08-21T21:07:12.443Z,3.00
2022-08-21T21:09:41.499Z,3.40
2022-08-21T21:12:12.850Z,4.10
2022-08-21T21:14:45.001Z,3.57
2022-08-21T21:17:17.811Z,3.57
2022-08-21T21:19:56.015Z,3.50
2022-08-21T21:22:27.469Z,3.87
2022-08-21T21:25:11.146Z,3.70
2022-08-21T21:27:39.162Z,3.20
2022-08-21T21:30:12.280Z,3.07
2022-08-21T21:32:40.916Z,3.53
2022-08-21T21:35:08.016Z,3.17
2022-08-21T21:37:34.494Z,3.23
2022-08-21T21:40:05.560Z,3.37
2022-08-21T21:42:44.276Z,3.03
2022-08-21T21:45:10.825Z,3.60
2022-08-21T21:47:47.522Z,3.43
2022-08-21T21:50:33.293Z,2.60
2022-08-21T21:52:59.859Z,2.90
2022-08-21T21:55:26.479Z,2.77
2022-08-21T21:58:16.764Z,2.37
2022-08-21T22:00:52.000Z,2.87
2022-08-21T22:03:39.129Z,1.93
2022-08-21T22:06:25.779Z,2.40
2022-08-21T22:09:01.268Z,2.67
2022-08-21T22:11:47.310Z,2.17
2022-08-21T22:14:27.436Z,2.80
2022-08-21T22:16:53.915Z,2.53
2022-08-21T22:19:35.049Z,2.87
2022-08-21T22:22:11.123Z,2.73
2022-08-21T22:24:40.378Z,2.70
2022-08-21T22:27:09.162Z,2.90
2022-08-21T22:29:49.484Z,2.37
2022-08-21T22:32:24.454Z,2.40
2022-08-21T22:35:12.633Z,2.00
2022-08-21T22:37:40.767Z,2.00
2022-08-21T22:40:08.591Z,2.00
2022-08-21T22:42:35.360Z,1.77
2022-08-21T22:45:04.805Z,2.07
2022-08-21T22:47:39.217Z,2.03
2022-08-21T22:50:15.852Z,1.83
2022-08-21T22:52:48.601Z,2.40
2022-08-21T22:55:24.703Z,1.73
2022-08-21T22:58:03.502Z,1.37
2022-08-21T23:00:40.417Z,2.00
2022-08-21T23:03:16.496Z,1.93
2022-08-21T23:05:44.406Z,2.43
2022-08-21T23:11:14.405Z,2.47
2022-08-21T23:13:48.279Z,2.00
2022-08-21T23:16:39.652Z,1.77
2022-08-21T23:19:13.754Z,1.73
2022-08-21T23:21:50.302Z,2.10
2022-08-21T23:24:37.052Z,2.00
2022-08-21T23:27:22.415Z,1.83
2022-08-21T23:30:10.088Z,1.77
2022-08-21T23:32:54.369Z,1.90
2022-08-21T23:35:51.896Z,1.97
2022-08-21T23:38:27.260Z,2.00
2022-08-21T23:41:01.966Z,1.70
2022-08-21T23:43:38.641Z,2.00
2022-08-21T23:46:33.684Z,2.20
2022-08-21T23:52:25.854Z,1.90
2022-08-21T23:55:01.737Z,1.70
2022-08-21T23:57:47.033Z,1.80
